sensor_id;sensor_type;location;lat;lon;timestamp;pressure;altitude;pressure_sealevel;temperature
22269;BMP280;11303;50.772;19.670;2023-05-23T00:00:52;98815.78;;;7.99
22269;BMP280;11303;50.772;19.670;2023-05-23T00:02:53;98813.19;;;7.99
22269;BMP280;11303;50.772;19.670;2023-05-23T00:04:55;98814.28;;;7.98
22269;BMP280;11303;50.772;19.670;2023-05-23T00:06:58;98810.78;;;7.94
22269;BMP280;11303;50.772;19.670;2023-05-23T00:09:01;98815.53;;;7.92
22269;BMP280;11303;50.772;19.670;2023-05-23T00:11:02;98811.31;;;7.87
22269;BMP280;11303;50.772;19.670;2023-05-23T00:13:04;98814.50;;;7.84
22269;BMP280;11303;50.772;19.670;2023-05-23T00:15:09;98807.06;;;7.83
22269;BMP280;11303;50.772;19.670;2023-05-23T00:17:11;98802.97;;;7.82
22269;BMP280;11303;50.772;19.670;2023-05-23T00:19:13;98802.19;;;7.81
22269;BMP280;11303;50.772;19.670;2023-05-23T00:21:17;98801.75;;;7.79
22269;BMP280;11303;50.772;19.670;2023-05-23T00:23:19;98802.41;;;7.76
22269;BMP280;11303;50.772;19.670;2023-05-23T00:25:21;98804.66;;;7.77
22269;BMP280;11303;50.772;19.670;2023-05-23T00:27:26;98797.34;;;7.79
22269;BMP280;11303;50.772;19.670;2023-05-23T00:29:28;98806.19;;;7.78
22269;BMP280;11303;50.772;19.670;2023-05-23T00:31:29;98795.84;;;7.78
22269;BMP280;11303;50.772;19.670;2023-05-23T00:33:32;98797.22;;;7.76
22269;BMP280;11303;50.772;19.670;2023-05-23T00:35:34;98788.88;;;7.70
22269;BMP280;11303;50.772;19.670;2023-05-23T00:37:36;98791.25;;;7.63
22269;BMP280;11303;50.772;19.670;2023-05-23T00:39:38;98788.06;;;7.57
22269;BMP280;11303;50.772;19.670;2023-05-23T00:41:40;98797.53;;;7.53
22269;BMP280;11303;50.772;19.670;2023-05-23T00:43:41;98789.63;;;7.50
22269;BMP280;11303;50.772;19.670;2023-05-23T00:45:43;98801.03;;;7.49
22269;BMP280;11303;50.772;19.670;2023-05-23T00:47:45;98787.53;;;7.43
22269;BMP280;11303;50.772;19.670;2023-05-23T00:49:47;98799.47;;;7.35
22269;BMP280;11303;50.772;19.670;2023-05-23T00:51:50;98786.25;;;7.28
22269;BMP280;11303;50.772;19.670;2023-05-23T00:53:52;98791.63;;;7.23
22269;BMP280;11303;50.772;19.670;2023-05-23T00:55:54;98793.19;;;7.15
22269;BMP280;11303;50.772;19.670;2023-05-23T00:57:57;98791.81;;;7.09
22269;BMP280;11303;50.772;19.670;2023-05-23T01:00:02;98793.63;;;7.09
22269;BMP280;11303;50.772;19.670;2023-05-23T01:02:04;98794.88;;;7.02
22269;BMP280;11303;50.772;19.670;2023-05-23T01:04:06;98792.16;;;6.99
22269;BMP280;11303;50.772;19.670;2023-05-23T01:06:08;98798.38;;;6.98
22269;BMP280;11303;50.772;19.670;2023-05-23T01:08:09;98791.41;;;6.98
22269;BMP280;11303;50.772;19.670;2023-05-23T01:10:13;98795.81;;;6.98
22269;BMP280;11303;50.772;19.670;2023-05-23T01:12:36;98800.09;;;6.94
22269;BMP280;11303;50.772;19.670;2023-05-23T01:16:57;98792.50;;;6.89
22269;BMP280;11303;50.772;19.670;2023-05-23T01:19:16;98783.56;;;6.86
22269;BMP280;11303;50.772;19.670;2023-05-23T01:21:24;98782.63;;;6.82
22269;BMP280;11303;50.772;19.670;2023-05-23T01:28:02;98775.09;;;6.77
22269;BMP280;11303;50.772;19.670;2023-05-23T01:30:07;98777.97;;;6.75
22269;BMP280;11303;50.772;19.670;2023-05-23T01:32:11;98777.19;;;6.75
22269;BMP280;11303;50.772;19.670;2023-05-23T01:34:14;98780.38;;;6.72
22269;BMP280;11303;50.772;19.670;2023-05-23T01:36:17;98779.63;;;6.71
22269;BMP280;11303;50.772;19.670;2023-05-23T01:38:19;98769.59;;;6.70
22269;BMP280;11303;50.772;19.670;2023-05-23T01:40:22;98773.44;;;6.63
22269;BMP280;11303;50.772;19.670;2023-05-23T01:42:23;98774.34;;;6.59
22269;BMP280;11303;50.772;19.670;2023-05-23T01:44:26;98771.03;;;6.50
22269;BMP280;11303;50.772;19.670;2023-05-23T01:46:28;98775.00;;;6.47
22269;BMP280;11303;50.772;19.670;2023-05-23T01:48:30;98774.53;;;6.45
22269;BMP280;11303;50.772;19.670;2023-05-23T01:50:32;98783.19;;;6.40
22269;BMP280;11303;50.772;19.670;2023-05-23T01:52:34;98784.91;;;6.36
22269;BMP280;11303;50.772;19.670;2023-05-23T01:54:37;98773.78;;;6.36
22269;BMP280;11303;50.772;19.670;2023-05-23T01:56:40;98776.38;;;6.36
22269;BMP280;11303;50.772;19.670;2023-05-23T01:58:43;98777.16;;;6.36
22269;BMP280;11303;50.772;19.670;2023-05-23T02:00:44;98778.22;;;6.35
22269;BMP280;11303;50.772;19.670;2023-05-23T02:02:46;98773.19;;;6.30
22269;BMP280;11303;50.772;19.670;2023-05-23T02:04:48;98771.84;;;6.24
22269;BMP280;11303;50.772;19.670;2023-05-23T02:06:50;98768.22;;;6.16
22269;BMP280;11303;50.772;19.670;2023-05-23T02:08:51;98767.59;;;6.11
22269;BMP280;11303;50.772;19.670;2023-05-23T02:10:53;98769.13;;;6.03
22269;BMP280;11303;50.772;19.670;2023-05-23T02:12:55;98774.13;;;5.99
22269;BMP280;11303;50.772;19.670;2023-05-23T02:14:56;98763.81;;;5.91
22269;BMP280;11303;50.772;19.670;2023-05-23T02:16:58;98767.88;;;5.83
22269;BMP280;11303;50.772;19.670;2023-05-23T02:19:00;98763.34;;;5.80
22269;BMP280;11303;50.772;19.670;2023-05-23T02:21:05;98758.34;;;5.75
22269;BMP280;11303;50.772;19.670;2023-05-23T02:23:07;98755.28;;;5.73
22269;BMP280;11303;50.772;19.670;2023-05-23T02:25:09;98758.63;;;5.73
22269;BMP280;11303;50.772;19.670;2023-05-23T02:27:10;98765.28;;;5.74
22269;BMP280;11303;50.772;19.670;2023-05-23T02:29:12;98763.78;;;5.73
22269;BMP280;11303;50.772;19.670;2023-05-23T02:31:14;98760.44;;;5.73
22269;BMP280;11303;50.772;19.670;2023-05-23T02:33:15;98770.00;;;5.72
22269;BMP280;11303;50.772;19.670;2023-05-23T02:35:17;98761.22;;;5.73
22269;BMP280;11303;50.772;19.670;2023-05-23T02:37:19;98760.44;;;5.73
22269;BMP280;11303;50.772;19.670;2023-05-23T02:39:20;98761.66;;;5.75
22269;BMP280;11303;50.772;19.670;2023-05-23T02:41:22;98760.78;;;5.80
22269;BMP280;11303;50.772;19.670;2023-05-23T02:43:23;98763.03;;;5.81
22269;BMP280;11303;50.772;19.670;2023-05-23T02:45:25;98763.66;;;5.87
22269;BMP280;11303;50.772;19.670;2023-05-23T02:47:27;98766.38;;;5.91
22269;BMP280;11303;50.772;19.670;2023-05-23T02:49:28;98763.81;;;5.91
22269;BMP280;11303;50.772;19.670;2023-05-23T02:51:30;98759.09;;;5.93
22269;BMP280;11303;50.772;19.670;2023-05-23T02:53:32;98758.16;;;5.97
22269;BMP280;11303;50.772;19.670;2023-05-23T02:55:34;98759.09;;;6.01
22269;BMP280;11303;50.772;19.670;2023-05-23T02:57:35;98756.84;;;6.09
22269;BMP280;11303;50.772;19.670;2023-05-23T02:59:37;98755.59;;;6.15
22269;BMP280;11303;50.772;19.670;2023-05-23T03:01:38;98749.53;;;6.19
22269;BMP280;11303;50.772;19.670;2023-05-23T03:03:40;98757.53;;;6.26
22269;BMP280;11303;50.772;19.670;2023-05-23T03:05:42;98748.44;;;6.29
22269;BMP280;11303;50.772;19.670;2023-05-23T03:07:44;98756.31;;;6.33
22269;BMP280;11303;50.772;19.670;2023-05-23T03:09:46;98750.56;;;6.36
22269;BMP280;11303;50.772;19.670;2023-05-23T03:11:47;98747.22;;;6.44
22269;BMP280;11303;50.772;19.670;2023-05-23T03:13:49;98749.78;;;6.53
22269;BMP280;11303;50.772;19.670;2023-05-23T03:15:51;98744.59;;;6.61
22269;BMP280;11303;50.772;19.670;2023-05-23T03:17:52;98747.72;;;6.76
22269;BMP280;11303;50.772;19.670;2023-05-23T03:19:54;98747.50;;;6.90
22269;BMP280;11303;50.772;19.670;2023-05-23T03:21:56;98737.59;;;7.00
22269;BMP280;11303;50.772;19.670;2023-05-23T03:23:57;98738.72;;;7.12
22269;BMP280;11303;50.772;19.670;2023-05-23T03:25:59;98732.59;;;7.25
22269;BMP280;11303;50.772;19.670;2023-05-23T03:28:01;98729.69;;;7.27
22269;BMP280;11303;50.772;19.670;2023-05-23T03:30:03;98736.00;;;7.38
22269;BMP280;11303;50.772;19.670;2023-05-23T03:32:06;98730.06;;;7.37
22269;BMP280;11303;50.772;19.670;2023-05-23T03:34:08;98733.59;;;7.54
22269;BMP280;11303;50.772;19.670;2023-05-23T03:36:09;98725.84;;;7.75
22269;BMP280;11303;50.772;19.670;2023-05-23T03:38:11;98728.50;;;8.00
22269;BMP280;11303;50.772;19.670;2023-05-23T03:40:13;98725.66;;;8.26
22269;BMP280;11303;50.772;19.670;2023-05-23T03:42:16;98726.44;;;8.39
22269;BMP280;11303;50.772;19.670;2023-05-23T03:44:17;98724.72;;;8.43
22269;BMP280;11303;50.772;19.670;2023-05-23T03:46:19;98723.75;;;8.47
22269;BMP280;11303;50.772;19.670;2023-05-23T03:48:21;98725.31;;;8.61
22269;BMP280;11303;50.772;19.670;2023-05-23T03:50:22;98731.00;;;8.79
22269;BMP280;11303;50.772;19.670;2023-05-23T03:52:24;98716.41;;;9.11
22269;BMP280;11303;50.772;19.670;2023-05-23T03:54:25;98732.09;;;9.43
22269;BMP280;11303;50.772;19.670;2023-05-23T03:56:27;98726.16;;;9.70
22269;BMP280;11303;50.772;19.670;2023-05-23T03:58:29;98714.75;;;10.03
22269;BMP280;11303;50.772;19.670;2023-05-23T04:00:30;98717.03;;;10.37
22269;BMP280;11303;50.772;19.670;2023-05-23T04:02:32;98717.88;;;10.76
22269;BMP280;11303;50.772;19.670;2023-05-23T04:04:33;98708.53;;;11.11
22269;BMP280;11303;50.772;19.670;2023-05-23T04:06:35;98716.16;;;11.39
22269;BMP280;11303;50.772;19.670;2023-05-23T04:08:37;98711.38;;;11.64
22269;BMP280;11303;50.772;19.670;2023-05-23T04:10:42;98709.00;;;11.98
22269;BMP280;11303;50.772;19.670;2023-05-23T04:12:44;98711.06;;;12.38
22269;BMP280;11303;50.772;19.670;2023-05-23T04:14:46;98707.56;;;12.54
22269;BMP280;11303;50.772;19.670;2023-05-23T04:16:48;98711.03;;;12.65
22269;BMP280;11303;50.772;19.670;2023-05-23T04:18:50;98706.38;;;12.78
22269;BMP280;11303;50.772;19.670;2023-05-23T04:20:52;98704.53;;;13.12
22269;BMP280;11303;50.772;19.670;2023-05-23T04:22:54;98710.00;;;13.37
22269;BMP280;11303;50.772;19.670;2023-05-23T04:24:55;98699.41;;;13.64
22269;BMP280;11303;50.772;19.670;2023-05-23T04:26:57;98706.06;;;14.02
22269;BMP280;11303;50.772;19.670;2023-05-23T04:28:59;98707.00;;;14.28
22269;BMP280;11303;50.772;19.670;2023-05-23T04:31:02;98705.66;;;14.56
22269;BMP280;11303;50.772;19.670;2023-05-23T04:33:04;98688.59;;;14.94
22269;BMP280;11303;50.772;19.670;2023-05-23T04:35:07;98694.28;;;15.39
22269;BMP280;11303;50.772;19.670;2023-05-23T04:37:08;98689.03;;;15.79
22269;BMP280;11303;50.772;19.670;2023-05-23T04:39:10;98688.25;;;15.93
22269;BMP280;11303;50.772;19.670;2023-05-23T04:41:12;98697.19;;;16.27
22269;BMP280;11303;50.772;19.670;2023-05-23T04:43:17;98686.56;;;16.60
22269;BMP280;11303;50.772;19.670;2023-05-23T04:45:20;98692.81;;;16.87
22269;BMP280;11303;50.772;19.670;2023-05-23T04:47:21;98693.78;;;17.08
22269;BMP280;11303;50.772;19.670;2023-05-23T04:49:25;98693.75;;;17.11
22269;BMP280;11303;50.772;19.670;2023-05-23T04:51:27;98690.44;;;17.07
22269;BMP280;11303;50.772;19.670;2023-05-23T04:53:28;98696.00;;;17.17
22269;BMP280;11303;50.772;19.670;2023-05-23T04:55:30;98688.97;;;16.99
22269;BMP280;11303;50.772;19.670;2023-05-23T04:57:33;98692.22;;;17.18
22269;BMP280;11303;50.772;19.670;2023-05-23T04:59:35;98682.31;;;17.36
22269;BMP280;11303;50.772;19.670;2023-05-23T05:01:36;98689.47;;;17.35
22269;BMP280;11303;50.772;19.670;2023-05-23T05:03:41;98685.09;;;17.63
22269;BMP280;11303;50.772;19.670;2023-05-23T05:05:43;98685.09;;;17.63
22269;BMP280;11303;50.772;19.670;2023-05-23T05:07:44;98685.69;;;17.82
22269;BMP280;11303;50.772;19.670;2023-05-23T05:09:46;98692.28;;;17.97
22269;BMP280;11303;50.772;19.670;2023-05-23T05:11:47;98690.38;;;18.01
22269;BMP280;11303;50.772;19.670;2023-05-23T05:13:49;98686.00;;;18.22
22269;BMP280;11303;50.772;19.670;2023-05-23T05:15:50;98687.31;;;18.37
22269;BMP280;11303;50.772;19.670;2023-05-23T05:17:53;98684.94;;;18.46
22269;BMP280;11303;50.772;19.670;2023-05-23T05:19:54;98681.50;;;18.80
22269;BMP280;11303;50.772;19.670;2023-05-23T05:21:56;98677.56;;;19.15
22269;BMP280;11303;50.772;19.670;2023-05-23T05:24:00;98676.63;;;19.89
22269;BMP280;11303;50.772;19.670;2023-05-23T05:26:02;98666.78;;;20.29
22269;BMP280;11303;50.772;19.670;2023-05-23T05:28:05;98673.13;;;20.32
22269;BMP280;11303;50.772;19.670;2023-05-23T05:30:07;98668.31;;;20.80
22269;BMP280;11303;50.772;19.670;2023-05-23T05:32:09;98668.63;;;20.82
22269;BMP280;11303;50.772;19.670;2023-05-23T05:34:11;98666.56;;;20.89
22269;BMP280;11303;50.772;19.670;2023-05-23T05:36:13;98672.34;;;20.68
22269;BMP280;11303;50.772;19.670;2023-05-23T05:38:15;98672.75;;;20.83
22269;BMP280;11303;50.772;19.670;2023-05-23T05:40:16;98677.03;;;21.09
22269;BMP280;11303;50.772;19.670;2023-05-23T05:42:18;98673.63;;;21.25
22269;BMP280;11303;50.772;19.670;2023-05-23T05:44:20;98672.53;;;21.39
22269;BMP280;11303;50.772;19.670;2023-05-23T05:46:21;98668.59;;;21.44
22269;BMP280;11303;50.772;19.670;2023-05-23T05:48:23;98664.75;;;21.32
22269;BMP280;11303;50.772;19.670;2023-05-23T05:50:25;98672.22;;;21.50
22269;BMP280;11303;50.772;19.670;2023-05-23T05:52:27;98667.00;;;21.75
22269;BMP280;11303;50.772;19.670;2023-05-23T05:54:28;98670.94;;;22.09
22269;BMP280;11303;50.772;19.670;2023-05-23T05:56:30;98662.78;;;22.16
22269;BMP280;11303;50.772;19.670;2023-05-23T05:58:32;98670.84;;;22.26
22269;BMP280;11303;50.772;19.670;2023-05-23T06:00:33;98669.06;;;22.35
22269;BMP280;11303;50.772;19.670;2023-05-23T06:02:43;98670.13;;;22.85
22269;BMP280;11303;50.772;19.670;2023-05-23T06:04:45;98664.97;;;23.26
22269;BMP280;11303;50.772;19.670;2023-05-23T06:06:47;98666.09;;;23.38
22269;BMP280;11303;50.772;19.670;2023-05-23T06:08:49;98660.13;;;23.55
22269;BMP280;11303;50.772;19.670;2023-05-23T06:10:50;98648.34;;;23.25
22269;BMP280;11303;50.772;19.670;2023-05-23T06:12:52;98657.81;;;22.79
22269;BMP280;11303;50.772;19.670;2023-05-23T06:14:54;98651.69;;;22.21
22269;BMP280;11303;50.772;19.670;2023-05-23T06:16:55;98654.88;;;22.04
22269;BMP280;11303;50.772;19.670;2023-05-23T06:18:57;98652.66;;;22.15
22269;BMP280;11303;50.772;19.670;2023-05-23T06:20:59;98653.34;;;22.54
22269;BMP280;11303;50.772;19.670;2023-05-23T06:23:01;98648.50;;;22.39
22269;BMP280;11303;50.772;19.670;2023-05-23T06:25:06;98646.81;;;22.20
22269;BMP280;11303;50.772;19.670;2023-05-23T06:27:08;98653.50;;;21.99
22269;BMP280;11303;50.772;19.670;2023-05-23T06:29:09;98655.28;;;22.15
22269;BMP280;11303;50.772;19.670;2023-05-23T06:31:11;98639.94;;;22.10
22269;BMP280;11303;50.772;19.670;2023-05-23T06:33:13;98648.84;;;22.16
22269;BMP280;11303;50.772;19.670;2023-05-23T06:35:14;98641.81;;;22.09
22269;BMP280;11303;50.772;19.670;2023-05-23T06:37:16;98640.16;;;22.15
22269;BMP280;11303;50.772;19.670;2023-05-23T06:39:18;98639.28;;;21.93
22269;BMP280;11303;50.772;19.670;2023-05-23T06:41:19;98629.69;;;21.57
22269;BMP280;11303;50.772;19.670;2023-05-23T06:43:21;98634.13;;;22.02
22269;BMP280;11303;50.772;19.670;2023-05-23T06:45:23;98640.56;;;22.39
22269;BMP280;11303;50.772;19.670;2023-05-23T06:47:24;98621.53;;;22.66
22269;BMP280;11303;50.772;19.670;2023-05-23T06:49:26;98629.41;;;22.44
22269;BMP280;11303;50.772;19.670;2023-05-23T06:51:28;98629.53;;;22.28
22269;BMP280;11303;50.772;19.670;2023-05-23T06:53:29;98623.94;;;22.13
22269;BMP280;11303;50.772;19.670;2023-05-23T06:55:31;98625.78;;;22.64
22269;BMP280;11303;50.772;19.670;2023-05-23T06:57:34;98623.69;;;22.46
22269;BMP280;11303;50.772;19.670;2023-05-23T06:59:35;98623.28;;;22.48
22269;BMP280;11303;50.772;19.670;2023-05-23T07:01:37;98623.94;;;22.74
22269;BMP280;11303;50.772;19.670;2023-05-23T07:03:39;98617.66;;;22.80
22269;BMP280;11303;50.772;19.670;2023-05-23T07:05:43;98611.19;;;23.16
22269;BMP280;11303;50.772;19.670;2023-05-23T07:07:45;98616.78;;;23.49
22269;BMP280;11303;50.772;19.670;2023-05-23T07:09:46;98615.03;;;23.96
22269;BMP280;11303;50.772;19.670;2023-05-23T07:11:48;98621.06;;;24.55
22269;BMP280;11303;50.772;19.670;2023-05-23T07:13:50;98613.84;;;24.47
22269;BMP280;11303;50.772;19.670;2023-05-23T07:15:51;98624.13;;;24.26
22269;BMP280;11303;50.772;19.670;2023-05-23T07:17:53;98624.00;;;24.48
22269;BMP280;11303;50.772;19.670;2023-05-23T07:19:55;98617.25;;;24.75
22269;BMP280;11303;50.772;19.670;2023-05-23T07:21:56;98620.47;;;24.51
22269;BMP280;11303;50.772;19.670;2023-05-23T07:23:58;98624.31;;;24.32
22269;BMP280;11303;50.772;19.670;2023-05-23T07:26:00;98617.19;;;24.29
22269;BMP280;11303;50.772;19.670;2023-05-23T07:28:03;98608.94;;;24.73
22269;BMP280;11303;50.772;19.670;2023-05-23T07:30:06;98605.09;;;25.01
22269;BMP280;11303;50.772;19.670;2023-05-23T07:32:09;98603.28;;;25.07
22269;BMP280;11303;50.772;19.670;2023-05-23T07:34:11;98593.78;;;25.25
22269;BMP280;11303;50.772;19.670;2023-05-23T07:36:13;98596.66;;;25.45
22269;BMP280;11303;50.772;19.670;2023-05-23T07:38:14;98599.78;;;25.44
22269;BMP280;11303;50.772;19.670;2023-05-23T07:40:16;98597.50;;;25.18
22269;BMP280;11303;50.772;19.670;2023-05-23T07:42:17;98601.84;;;24.97
22269;BMP280;11303;50.772;19.670;2023-05-23T07:44:19;98600.50;;;25.02
22269;BMP280;11303;50.772;19.670;2023-05-23T07:46:25;98604.31;;;25.01
22269;BMP280;11303;50.772;19.670;2023-05-23T07:48:27;98597.00;;;24.77
22269;BMP280;11303;50.772;19.670;2023-05-23T07:50:28;98595.84;;;24.60
22269;BMP280;11303;50.772;19.670;2023-05-23T07:52:30;98593.00;;;24.82
22269;BMP280;11303;50.772;19.670;2023-05-23T07:54:32;98591.50;;;24.99
22269;BMP280;11303;50.772;19.670;2023-05-23T07:56:34;98590.34;;;24.73
22269;BMP280;11303;50.772;19.670;2023-05-23T07:58:35;98597.59;;;24.45
22269;BMP280;11303;50.772;19.670;2023-05-23T08:00:37;98578.25;;;24.44
22269;BMP280;11303;50.772;19.670;2023-05-23T08:02:39;98585.47;;;24.80
22269;BMP280;11303;50.772;19.670;2023-05-23T08:04:41;98573.22;;;24.92
22269;BMP280;11303;50.772;19.670;2023-05-23T08:06:43;98579.22;;;25.02
22269;BMP280;11303;50.772;19.670;2023-05-23T08:09:05;98584.59;;;24.74
22269;BMP280;11303;50.772;19.670;2023-05-23T08:11:07;98577.22;;;24.41
22269;BMP280;11303;50.772;19.670;2023-05-23T08:13:09;98585.78;;;24.27
22269;BMP280;11303;50.772;19.670;2023-05-23T08:15:10;98581.94;;;24.28
22269;BMP280;11303;50.772;19.670;2023-05-23T08:17:12;98592.50;;;24.01
22269;BMP280;11303;50.772;19.670;2023-05-23T08:19:14;98582.28;;;23.90
22269;BMP280;11303;50.772;19.670;2023-05-23T08:21:16;98581.00;;;24.04
22269;BMP280;11303;50.772;19.670;2023-05-23T08:23:18;98573.94;;;24.10
22269;BMP280;11303;50.772;19.670;2023-05-23T08:25:19;98565.00;;;24.35
22269;BMP280;11303;50.772;19.670;2023-05-23T08:27:21;98577.06;;;24.27
22269;BMP280;11303;50.772;19.670;2023-05-23T08:29:23;98572.59;;;24.14
22269;BMP280;11303;50.772;19.670;2023-05-23T08:31:25;98579.38;;;23.97
22269;BMP280;11303;50.772;19.670;2023-05-23T08:33:27;98566.84;;;23.97
22269;BMP280;11303;50.772;19.670;2023-05-23T08:35:29;98574.72;;;24.19
22269;BMP280;11303;50.772;19.670;2023-05-23T08:37:35;98567.50;;;24.38
22269;BMP280;11303;50.772;19.670;2023-05-23T08:39:37;98570.28;;;24.72
22269;BMP280;11303;50.772;19.670;2023-05-23T08:41:38;98581.50;;;24.67
22269;BMP280;11303;50.772;19.670;2023-05-23T08:43:40;98579.28;;;24.28
22269;BMP280;11303;50.772;19.670;2023-05-23T08:45:42;98577.47;;;23.97
22269;BMP280;11303;50.772;19.670;2023-05-23T08:47:45;98575.84;;;24.00
22269;BMP280;11303;50.772;19.670;2023-05-23T08:49:47;98572.59;;;24.05
22269;BMP280;11303;50.772;19.670;2023-05-23T08:51:51;98559.31;;;23.96
22269;BMP280;11303;50.772;19.670;2023-05-23T08:53:57;98589.38;;;23.93
22269;BMP280;11303;50.772;19.670;2023-05-23T08:56:00;98587.31;;;23.88
22269;BMP280;11303;50.772;19.670;2023-05-23T08:58:03;98577.44;;;23.88
22269;BMP280;11303;50.772;19.670;2023-05-23T09:00:05;98579.84;;;24.05
22269;BMP280;11303;50.772;19.670;2023-05-23T09:02:11;98573.78;;;23.95
22269;BMP280;11303;50.772;19.670;2023-05-23T09:04:13;98572.31;;;24.03
22269;BMP280;11303;50.772;19.670;2023-05-23T09:06:15;98576.31;;;24.08
22269;BMP280;11303;50.772;19.670;2023-05-23T09:08:20;98574.94;;;23.94
22269;BMP280;11303;50.772;19.670;2023-05-23T09:10:21;98571.63;;;24.21
22269;BMP280;11303;50.772;19.670;2023-05-23T09:12:23;98577.66;;;24.21
22269;BMP280;11303;50.772;19.670;2023-05-23T09:14:24;98578.34;;;23.94
22269;BMP280;11303;50.772;19.670;2023-05-23T09:16:33;98556.34;;;23.85
22269;BMP280;11303;50.772;19.670;2023-05-23T09:18:37;98568.53;;;23.73
22269;BMP280;11303;50.772;19.670;2023-05-23T09:20:39;98574.56;;;23.64
22269;BMP280;11303;50.772;19.670;2023-05-23T09:22:46;98573.13;;;23.72
22269;BMP280;11303;50.772;19.670;2023-05-23T09:24:50;98570.81;;;23.93
22269;BMP280;11303;50.772;19.670;2023-05-23T09:26:52;98565.53;;;24.02
22269;BMP280;11303;50.772;19.670;2023-05-23T09:28:56;98559.63;;;24.07
22269;BMP280;11303;50.772;19.670;2023-05-23T09:31:00;98563.34;;;24.37
22269;BMP280;11303;50.772;19.670;2023-05-23T09:33:01;98558.47;;;24.45
22269;BMP280;11303;50.772;19.670;2023-05-23T09:35:07;98552.16;;;24.33
22269;BMP280;11303;50.772;19.670;2023-05-23T09:37:12;98569.97;;;24.24
22269;BMP280;11303;50.772;19.670;2023-05-23T09:39:19;98567.31;;;24.14
22269;BMP280;11303;50.772;19.670;2023-05-23T09:41:22;98560.41;;;24.26
22269;BMP280;11303;50.772;19.670;2023-05-23T09:43:24;98567.91;;;24.09
22269;BMP280;11303;50.772;19.670;2023-05-23T09:45:29;98574.38;;;23.99
22269;BMP280;11303;50.772;19.670;2023-05-23T09:47:30;98560.47;;;23.76
22269;BMP280;11303;50.772;19.670;2023-05-23T09:49:32;98567.72;;;23.94
22269;BMP280;11303;50.772;19.670;2023-05-23T09:51:34;98552.69;;;24.01
22269;BMP280;11303;50.772;19.670;2023-05-23T09:53:36;98570.84;;;24.02
22269;BMP280;11303;50.772;19.670;2023-05-23T09:55:38;98544.63;;;24.41
22269;BMP280;11303;50.772;19.670;2023-05-23T09:57:42;98550.31;;;24.95
22269;BMP280;11303;50.772;19.670;2023-05-23T09:59:51;98550.75;;;24.93
22269;BMP280;11303;50.772;19.670;2023-05-23T10:01:55;98537.47;;;24.93
22269;BMP280;11303;50.772;19.670;2023-05-23T10:03:58;98535.00;;;24.71
22269;BMP280;11303;50.772;19.670;2023-05-23T10:06:07;98536.78;;;24.56
22269;BMP280;11303;50.772;19.670;2023-05-23T10:08:19;98545.06;;;24.67
22269;BMP280;11303;50.772;19.670;2023-05-23T10:10:23;98526.00;;;24.78
22269;BMP280;11303;50.772;19.670;2023-05-23T10:12:39;98521.81;;;24.95
22269;BMP280;11303;50.772;19.670;2023-05-23T10:14:44;98528.06;;;25.16
22269;BMP280;11303;50.772;19.670;2023-05-23T10:17:28;98522.38;;;24.99
22269;BMP280;11303;50.772;19.670;2023-05-23T10:19:39;98517.13;;;24.72
22269;BMP280;11303;50.772;19.670;2023-05-23T10:21:43;98517.47;;;24.64
22269;BMP280;11303;50.772;19.670;2023-05-23T10:23:47;98512.00;;;24.40
22269;BMP280;11303;50.772;19.670;2023-05-23T10:25:49;98510.50;;;24.67
22269;BMP280;11303;50.772;19.670;2023-05-23T10:27:56;98504.72;;;24.78
22269;BMP280;11303;50.772;19.670;2023-05-23T10:30:01;98513.53;;;24.93
22269;BMP280;11303;50.772;19.670;2023-05-23T10:32:04;98494.28;;;25.07
22269;BMP280;11303;50.772;19.670;2023-05-23T10:34:21;98501.13;;;25.32
22269;BMP280;11303;50.772;19.670;2023-05-23T10:36:32;98494.13;;;25.44
22269;BMP280;11303;50.772;19.670;2023-05-23T10:38:53;98501.63;;;25.70
22269;BMP280;11303;50.772;19.670;2023-05-23T10:41:24;98508.78;;;25.64
22269;BMP280;11303;50.772;19.670;2023-05-23T10:43:41;98500.25;;;25.26
22269;BMP280;11303;50.772;19.670;2023-05-23T10:45:44;98493.72;;;25.03
22269;BMP280;11303;50.772;19.670;2023-05-23T10:47:51;98489.38;;;25.15
22269;BMP280;11303;50.772;19.670;2023-05-23T10:49:53;98493.59;;;25.31
22269;BMP280;11303;50.772;19.670;2023-05-23T10:51:55;98493.81;;;25.42
22269;BMP280;11303;50.772;19.670;2023-05-23T10:53:57;98495.00;;;25.17
22269;BMP280;11303;50.772;19.670;2023-05-23T10:55:59;98506.78;;;25.16
22269;BMP280;11303;50.772;19.670;2023-05-23T10:58:11;98504.75;;;25.11
22269;BMP280;11303;50.772;19.670;2023-05-23T11:00:14;98500.69;;;25.34
22269;BMP280;11303;50.772;19.670;2023-05-23T11:02:27;98496.78;;;25.44
22269;BMP280;11303;50.772;19.670;2023-05-23T11:04:29;98488.47;;;25.75
22269;BMP280;11303;50.772;19.670;2023-05-23T11:06:39;98503.34;;;25.82
22269;BMP280;11303;50.772;19.670;2023-05-23T11:08:43;98486.75;;;25.63
22269;BMP280;11303;50.772;19.670;2023-05-23T11:11:00;98491.56;;;25.50
22269;BMP280;11303;50.772;19.670;2023-05-23T11:13:05;98480.91;;;25.26
22269;BMP280;11303;50.772;19.670;2023-05-23T11:17:29;98483.00;;;25.22
22269;BMP280;11303;50.772;19.670;2023-05-23T11:19:32;98477.97;;;25.15
22269;BMP280;11303;50.772;19.670;2023-05-23T11:21:34;98474.69;;;25.29
22269;BMP280;11303;50.772;19.670;2023-05-23T11:23:41;98472.28;;;25.64
22269;BMP280;11303;50.772;19.670;2023-05-23T11:25:52;98473.28;;;26.20
22269;BMP280;11303;50.772;19.670;2023-05-23T11:27:54;98463.63;;;26.38
22269;BMP280;11303;50.772;19.670;2023-05-23T11:30:00;98460.72;;;26.21
22269;BMP280;11303;50.772;19.670;2023-05-23T11:32:09;98468.72;;;26.21
22269;BMP280;11303;50.772;19.670;2023-05-23T11:34:18;98473.56;;;25.69
22269;BMP280;11303;50.772;19.670;2023-05-23T11:36:22;98473.44;;;25.63
22269;BMP280;11303;50.772;19.670;2023-05-23T11:38:24;98478.19;;;25.35
22269;BMP280;11303;50.772;19.670;2023-05-23T11:40:26;98489.84;;;25.14
22269;BMP280;11303;50.772;19.670;2023-05-23T11:42:28;98473.25;;;25.19
22269;BMP280;11303;50.772;19.670;2023-05-23T11:44:30;98481.66;;;25.50
22269;BMP280;11303;50.772;19.670;2023-05-23T11:46:32;98474.31;;;25.69
22269;BMP280;11303;50.772;19.670;2023-05-23T11:48:34;98476.50;;;25.71
22269;BMP280;11303;50.772;19.670;2023-05-23T11:50:50;98482.63;;;26.01
22269;BMP280;11303;50.772;19.670;2023-05-23T11:52:54;98470.44;;;26.24